Time;durP1;ratioP1;P1;durP2;ratioP2;P2;SDS_P1;SDS_P2;PMS_P1;PMS_P2;Temp;Humidity;BMP_temperature;BMP_pressure;BME280_temperature;BME280_humidity;BME280_pressure;Samples;Min_cycle;Max_cycle;Signal;HPM_P1;HPM_P2
2023/01/16 00:01:39;;;;;;;1.27;0.75;;;4.50;99.90;;;;;;4990186;28;20054;-78
2023/01/16 00:04:08;;;;;;;1.35;0.65;;;4.60;99.90;;;;;;5009821;28;20429;-78
2023/01/16 00:06:35;;;;;;;1.60;1.15;;;4.60;99.90;;;;;;4977671;28;20394;-78
2023/01/16 00:09:04;;;;;;;1.45;0.75;;;4.60;99.90;;;;;;5018045;28;20138;-77
2023/01/16 00:11:30;;;;;;;0.65;0.63;;;4.70;99.90;;;;;;4985435;28;20053;-77
2023/01/16 00:13:58;;;;;;;1.55;0.70;;;4.70;99.90;;;;;;4999266;28;20381;-78
2023/01/16 00:16:26;;;;;;;2.38;1.02;;;4.70;99.90;;;;;;5001926;28;20095;-77
2023/01/16 00:18:53;;;;;;;0.82;0.60;;;4.70;99.90;;;;;;4997005;28;20125;-77
2023/01/16 00:21:20;;;;;;;0.50;0.50;;;4.70;99.90;;;;;;5000926;28;20061;-77
2023/01/16 00:23:47;;;;;;;0.80;0.57;;;4.80;99.90;;;;;;4998847;28;20153;-77
2023/01/16 00:26:15;;;;;;;1.38;0.85;;;4.70;99.90;;;;;;5017656;28;20445;-77
2023/01/16 00:28:41;;;;;;;1.40;0.80;;;4.80;99.90;;;;;;4975697;28;20081;-77
2023/01/16 00:31:09;;;;;;;1.88;0.70;;;4.80;99.90;;;;;;4999977;28;20132;-78
2023/01/16 00:33:36;;;;;;;0.65;0.60;;;4.80;99.90;;;;;;4989270;28;20046;-77
2023/01/16 00:36:03;;;;;;;1.77;0.47;;;4.80;99.90;;;;;;5001719;28;20053;-77
2023/01/16 00:38:31;;;;;;;1.05;0.50;;;4.80;99.90;;;;;;5001450;28;20379;-79
2023/01/16 00:40:58;;;;;;;1.00;0.57;;;4.80;99.90;;;;;;4976128;28;20168;-79
2023/01/16 00:43:25;;;;;;;0.68;0.50;;;4.80;99.90;;;;;;5018317;28;20042;-79
2023/01/16 00:45:52;;;;;;;1.50;0.70;;;4.80;99.90;;;;;;5015569;28;20139;-80
2023/01/16 00:48:19;;;;;;;1.05;0.77;;;4.80;99.90;;;;;;5010571;28;20494;-79
2023/01/16 00:50:46;;;;;;;0.98;0.80;;;4.90;99.90;;;;;;5013125;28;20141;-79
2023/01/16 00:53:13;;;;;;;1.20;0.60;;;4.90;99.90;;;;;;5009820;28;20073;-79
2023/01/16 00:55:41;;;;;;;1.90;0.95;;;4.90;99.90;;;;;;5015369;28;20091;-78
2023/01/16 00:58:09;;;;;;;2.40;0.80;;;4.90;99.90;;;;;;4979237;28;20151;-79
2023/01/16 01:00:36;;;;;;;1.13;0.80;;;4.90;99.90;;;;;;4983227;28;20049;-79
2023/01/16 01:03:04;;;;;;;1.15;0.70;;;4.90;99.90;;;;;;5018066;28;20060;-79
2023/01/16 01:05:31;;;;;;;2.55;0.90;;;4.90;99.90;;;;;;5004217;28;20053;-79
2023/01/16 01:07:57;;;;;;;4.18;0.95;;;4.90;99.90;;;;;;5005288;28;20053;-79
2023/01/16 01:10:24;;;;;;;2.95;0.80;;;5.00;99.90;;;;;;5009537;28;20049;-79
2023/01/16 01:12:54;;;;;;;3.95;0.98;;;4.90;99.90;;;;;;4989370;28;20076;-79
2023/01/16 01:15:22;;;;;;;2.17;1.00;;;4.90;99.90;;;;;;5020401;28;20119;-79
2023/01/16 01:17:49;;;;;;;3.15;1.00;;;4.90;99.90;;;;;;4997248;28;20384;-79
2023/01/16 01:20:16;;;;;;;3.60;1.00;;;4.90;99.90;;;;;;5020886;28;20478;-79
2023/01/16 01:22:45;;;;;;;2.63;1.08;;;5.00;99.90;;;;;;5000028;28;20373;-79
2023/01/16 01:25:12;;;;;;;2.70;0.90;;;5.00;99.90;;;;;;5020472;28;20653;-79
2023/01/16 01:27:39;;;;;;;3.35;1.20;;;5.00;99.90;;;;;;4980399;28;20119;-79
2023/01/16 01:30:06;;;;;;;1.63;0.95;;;5.00;99.90;;;;;;5021614;28;20049;-79
2023/01/16 01:32:36;;;;;;;2.38;1.20;;;5.00;99.90;;;;;;5000766;28;20054;-79
2023/01/16 01:35:06;;;;;;;1.42;1.00;;;5.00;99.90;;;;;;5001374;28;20148;-79
2023/01/16 01:37:34;;;;;;;1.35;0.82;;;5.00;99.90;;;;;;4993338;28;20128;-79
2023/01/16 01:40:02;;;;;;;2.58;1.23;;;5.00;99.90;;;;;;5003083;28;20053;-79
2023/01/16 01:42:45;;;;;;;2.95;1.20;;;5.00;99.90;;;;;;5019585;28;20111;-79
2023/01/16 01:45:28;;;;;;;1.38;0.98;;;5.00;99.90;;;;;;5012188;28;20046;-79
2023/01/16 01:48:14;;;;;;;2.22;1.08;;;5.00;99.90;;;;;;5001737;28;20065;-79
2023/01/16 01:50:50;;;;;;;2.80;1.00;;;5.00;99.90;;;;;;4985819;28;20380;-79
2023/01/16 01:53:48;;;;;;;2.47;1.08;;;5.00;99.90;;;;;;5012361;28;20041;-79
2023/01/16 01:56:40;;;;;;;1.25;0.60;;;5.00;99.90;;;;;;5012292;28;20076;-79
2023/01/16 01:59:10;;;;;;;2.40;1.00;;;5.00;99.90;;;;;;5010394;28;20104;-79
2023/01/16 02:01:37;;;;;;;3.25;1.20;;;4.90;99.90;;;;;;4993027;28;20495;-80
2023/01/16 02:04:07;;;;;;;2.65;1.33;;;4.90;99.90;;;;;;4984415;28;20073;-77
2023/01/16 02:06:38;;;;;;;1.83;1.10;;;5.00;99.90;;;;;;5018273;28;20140;-78
2023/01/16 02:09:06;;;;;;;1.95;1.13;;;4.90;99.90;;;;;;4997697;28;20060;-77
2023/01/16 02:12:00;;;;;;;1.00;0.70;;;4.90;99.90;;;;;;5017579;28;20140;-77
2023/01/16 02:14:28;;;;;;;3.00;1.20;;;4.90;99.90;;;;;;4999594;28;21017;-77
2023/01/16 02:20:10;;;;;;;1.20;0.70;;;5.00;99.90;;;;;;4946182;28;20557;-75
2023/01/16 02:22:52;;;;;;;1.90;1.13;;;5.00;99.90;;;;;;4994286;28;20085;-76
2023/01/16 02:25:43;;;;;;;1.80;0.82;;;5.00;99.90;;;;;;4993566;28;20084;-76
2023/01/16 02:28:16;;;;;;;1.33;0.90;;;5.00;99.90;;;;;;5016704;28;20204;-76
2023/01/16 02:31:04;;;;;;;1.15;0.75;;;5.00;99.90;;;;;;5002532;28;20054;-76
2023/01/16 02:33:45;;;;;;;1.50;0.80;;;5.00;99.90;;;;;;5008214;28;20060;-76
2023/01/16 02:36:13;;;;;;;1.48;0.82;;;5.00;99.90;;;;;;5006447;28;20092;-76
2023/01/16 02:39:03;;;;;;;1.50;0.88;;;5.00;99.90;;;;;;5023390;28;20136;-76
2023/01/16 02:41:51;;;;;;;0.82;0.50;;;5.00;99.90;;;;;;5013385;28;20056;-76
2023/01/16 02:44:30;;;;;;;1.05;0.65;;;5.00;99.90;;;;;;4982512;28;20046;-76
2023/01/16 02:47:07;;;;;;;1.17;0.52;;;5.00;99.90;;;;;;5012707;28;20353;-75
2023/01/16 02:49:42;;;;;;;1.98;0.93;;;5.00;99.90;;;;;;5012570;28;20061;-75
2023/01/16 02:52:24;;;;;;;2.70;0.75;;;4.90;99.90;;;;;;5005094;28;20046;-76
2023/01/16 02:54:58;;;;;;;0.70;0.55;;;4.90;99.90;;;;;;4992576;28;20081;-76
2023/01/16 02:57:29;;;;;;;0.88;0.40;;;4.90;99.90;;;;;;5008565;28;20045;-76
2023/01/16 02:59:55;;;;;;;0.98;0.35;;;4.90;99.90;;;;;;5005965;28;20133;-76
2023/01/16 03:02:22;;;;;;;0.32;0.32;;;4.90;99.90;;;;;;5011443;28;20057;-76
2023/01/16 03:04:51;;;;;;;0.40;0.40;;;4.80;99.90;;;;;;5023256;28;20103;-76
2023/01/16 03:07:36;;;;;;;0.38;0.38;;;4.70;99.90;;;;;;5007412;28;20063;-75
2023/01/16 03:10:23;;;;;;;0.25;0.25;;;4.70;99.90;;;;;;5023970;28;20056;-75
2023/01/16 03:13:10;;;;;;;0.20;0.20;;;4.70;99.90;;;;;;5018447;28;20083;-76
2023/01/16 03:15:44;;;;;;;0.38;0.32;;;4.60;99.90;;;;;;5013847;28;20050;-74
2023/01/16 03:18:20;;;;;;;0.47;0.32;;;4.60;99.90;;;;;;5017723;28;20778;-75
2023/01/16 03:20:50;;;;;;;0.20;0.20;;;4.60;99.90;;;;;;5005825;28;20133;-76
2023/01/16 03:23:29;;;;;;;0.20;0.20;;;4.50;99.90;;;;;;5013351;28;20079;-76
2023/01/16 03:26:43;;;;;;;0.20;0.20;;;4.50;99.90;;;;;;5013059;28;20046;-76
2023/01/16 03:29:30;;;;;;;0.43;0.40;;;4.40;99.90;;;;;;4978161;28;20053;-75
2023/01/16 03:32:07;;;;;;;0.30;0.30;;;4.30;99.90;;;;;;5023294;28;20054;-75
2023/01/16 03:34:35;;;;;;;0.30;0.30;;;4.30;99.90;;;;;;5007328;28;20485;-75
2023/01/16 03:37:06;;;;;;;0.20;0.20;;;4.20;99.90;;;;;;5007852;28;20240;-76
2023/01/16 03:39:46;;;;;;;0.30;0.20;;;4.20;99.90;;;;;;4978279;28;20056;-75
2023/01/16 03:42:20;;;;;;;0.25;0.25;;;4.10;99.90;;;;;;5007504;28;20053;-75
2023/01/16 03:44:50;;;;;;;0.20;0.20;;;4.20;99.90;;;;;;4998057;28;20046;-75
2023/01/16 03:47:20;;;;;;;0.20;0.20;;;4.10;99.90;;;;;;5009504;28;20088;-75
2023/01/16 03:49:49;;;;;;;0.20;0.20;;;4.10;99.90;;;;;;5016957;28;20068;-75
2023/01/16 03:52:17;;;;;;;0.20;0.20;;;4.00;99.90;;;;;;4989530;28;20050;-75
2023/01/16 03:54:47;;;;;;;0.20;0.20;;;3.90;99.90;;;;;;4984236;28;20050;-75
2023/01/16 03:57:17;;;;;;;0.28;0.28;;;3.80;99.90;;;;;;5010549;28;20081;-75
2023/01/16 03:59:44;;;;;;;0.20;0.20;;;3.80;99.90;;;;;;5007906;28;20041;-75
2023/01/16 04:02:12;;;;;;;0.30;0.30;;;3.80;99.90;;;;;;5003739;28;20208;-75
2023/01/16 04:04:48;;;;;;;0.20;0.20;;;3.80;99.90;;;;;;5002565;28;20049;-75
2023/01/16 04:07:39;;;;;;;0.20;0.20;;;3.70;99.90;;;;;;5021592;28;20103;-74
2023/01/16 04:10:09;;;;;;;0.30;0.30;;;3.70;99.90;;;;;;5023218;28;20056;-74
2023/01/16 04:12:37;;;;;;;0.40;0.40;;;3.70;99.90;;;;;;5005057;28;20131;-76
2023/01/16 04:15:06;;;;;;;0.20;0.20;;;3.50;99.90;;;;;;5005214;28;20594;-75
2023/01/16 04:17:37;;;;;;;0.20;0.20;;;3.50;99.90;;;;;;5002928;28;20058;-75
2023/01/16 04:20:05;;;;;;;0.20;0.20;;;3.40;99.90;;;;;;5010674;28;20140;-75
2023/01/16 04:22:32;;;;;;;0.22;0.20;;;3.40;99.90;;;;;;4989165;28;20053;-75
2023/01/16 04:25:00;;;;;;;0.10;0.10;;;3.30;99.90;;;;;;4996703;28;20072;-75
2023/01/16 04:27:27;;;;;;;0.10;0.10;;;3.20;99.90;;;;;;5012563;28;20184;-76
2023/01/16 04:29:55;;;;;;;0.30;0.30;;;3.20;99.90;;;;;;5019560;28;20053;-75
2023/01/16 04:32:22;;;;;;;0.40;0.40;;;3.20;99.90;;;;;;4987247;28;20101;-76
2023/01/16 04:34:48;;;;;;;0.20;0.20;;;3.20;99.90;;;;;;5021673;28;20107;-75
2023/01/16 04:37:15;;;;;;;0.10;0.10;;;3.20;99.90;;;;;;5005704;28;20056;-75
2023/01/16 04:39:42;;;;;;;0.30;0.30;;;3.20;99.90;;;;;;5011692;28;20050;-75
2023/01/16 04:42:09;;;;;;;0.20;0.20;;;3.20;99.90;;;;;;5020979;28;20128;-75
2023/01/16 04:44:36;;;;;;;0.20;0.20;;;3.10;99.90;;;;;;5009080;28;20107;-75
2023/01/16 04:47:03;;;;;;;1.17;0.30;;;3.10;99.90;;;;;;5026114;28;20075;-75
2023/01/16 04:49:30;;;;;;;0.32;0.30;;;3.00;99.90;;;;;;5008573;28;20096;-75
2023/01/16 04:51:57;;;;;;;0.30;0.30;;;3.00;99.90;;;;;;5026362;28;20734;-75
2023/01/16 04:54:24;;;;;;;0.43;0.28;;;2.90;99.90;;;;;;5012269;28;20213;-75
2023/01/16 04:56:51;;;;;;;0.30;0.30;;;2.90;99.90;;;;;;5008759;28;20061;-75
2023/01/16 04:59:18;;;;;;;0.30;0.30;;;2.90;99.90;;;;;;5017389;28;20054;-75
2023/01/16 05:01:44;;;;;;;0.20;0.20;;;2.90;99.90;;;;;;4991674;28;20104;-75
2023/01/16 05:04:12;;;;;;;0.25;0.25;;;2.80;99.90;;;;;;5021022;28;20054;-76
2023/01/16 05:06:39;;;;;;;0.40;0.40;;;2.80;99.90;;;;;;4999933;28;20116;-75
2023/01/16 05:09:06;;;;;;;0.30;0.30;;;2.80;99.90;;;;;;5016848;28;20111;-75
2023/01/16 05:11:33;;;;;;;0.75;0.50;;;2.80;99.90;;;;;;5017177;28;20072;-77
2023/01/16 05:14:01;;;;;;;0.52;0.52;;;2.80;99.90;;;;;;5020919;28;20060;-76
2023/01/16 05:16:27;;;;;;;0.40;0.40;;;2.80;99.90;;;;;;5008554;28;20132;-76
2023/01/16 05:18:54;;;;;;;0.60;0.60;;;2.70;99.90;;;;;;4990143;28;20139;-77
2023/01/16 05:21:21;;;;;;;0.50;0.50;;;2.60;99.90;;;;;;5007116;28;20508;-76
2023/01/16 05:23:47;;;;;;;0.73;0.60;;;2.50;99.90;;;;;;5015764;28;20045;-77
2023/01/16 05:26:14;;;;;;;0.45;0.30;;;2.50;99.90;;;;;;5019540;28;20461;-76
2023/01/16 05:28:41;;;;;;;0.30;0.30;;;2.40;99.90;;;;;;5002604;28;20141;-77
2023/01/16 05:31:08;;;;;;;0.55;0.50;;;2.30;99.90;;;;;;5015163;28;20187;-76
2023/01/16 05:33:35;;;;;;;0.40;0.40;;;2.30;99.90;;;;;;4994320;28;20081;-77
2023/01/16 05:36:02;;;;;;;0.30;0.30;;;2.30;99.90;;;;;;5002443;28;20045;-75
2023/01/16 05:38:29;;;;;;;0.38;0.38;;;2.30;99.90;;;;;;5015065;28;20468;-76
2023/01/16 05:40:55;;;;;;;0.40;0.40;;;2.30;99.90;;;;;;5002503;28;20107;-76
2023/01/16 05:43:23;;;;;;;0.22;0.22;;;2.20;99.90;;;;;;5014850;28;20424;-76
2023/01/16 05:45:50;;;;;;;0.55;0.55;;;2.30;99.90;;;;;;5019015;28;20140;-76
2023/01/16 05:48:17;;;;;;;0.70;0.60;;;2.20;99.90;;;;;;5014235;28;20063;-75
2023/01/16 05:50:44;;;;;;;0.73;0.60;;;2.20;99.90;;;;;;5009614;28;20069;-76
2023/01/16 05:53:10;;;;;;;1.10;0.80;;;2.20;99.90;;;;;;5006072;28;20049;-75
2023/01/16 05:55:43;;;;;;;1.58;0.90;;;2.20;99.90;;;;;;4979436;28;20149;-76
2023/01/16 05:58:10;;;;;;;2.00;1.17;;;2.30;99.90;;;;;;5009893;28;20145;-75
2023/01/16 06:00:37;;;;;;;2.13;1.27;;;2.30;99.90;;;;;;4992660;28;20104;-76
2023/01/16 06:03:05;;;;;;;1.42;0.85;;;2.40;99.90;;;;;;4992772;28;20069;-74
2023/01/16 06:05:32;;;;;;;0.55;0.43;;;2.40;99.90;;;;;;5017349;28;20049;-75
2023/01/16 06:07:58;;;;;;;0.73;0.60;;;2.40;99.90;;;;;;5010261;28;20144;-75
2023/01/16 06:10:25;;;;;;;0.57;0.57;;;2.50;99.90;;;;;;5005035;28;20042;-75
2023/01/16 06:12:52;;;;;;;0.30;0.30;;;2.60;99.90;;;;;;5006517;28;20056;-75
2023/01/16 06:15:19;;;;;;;1.00;0.50;;;2.60;99.90;;;;;;4994316;28;20237;-75
2023/01/16 06:17:46;;;;;;;0.40;0.40;;;2.70;99.90;;;;;;5013805;28;20054;-75
2023/01/16 06:20:13;;;;;;;0.17;0.17;;;2.80;99.90;;;;;;4992128;28;20137;-75
2023/01/16 06:22:41;;;;;;;0.70;0.43;;;2.80;99.90;;;;;;5005967;28;20049;-76
2023/01/16 06:25:08;;;;;;;0.57;0.40;;;2.90;99.90;;;;;;5010164;28;20064;-75
2023/01/16 06:27:35;;;;;;;1.77;0.60;;;2.90;99.90;;;;;;5008363;28;20053;-75
2023/01/16 06:30:03;;;;;;;1.23;0.60;;;2.90;99.90;;;;;;5011083;28;20307;-76
2023/01/16 06:32:30;;;;;;;0.50;0.50;;;2.90;99.90;;;;;;4999226;28;20195;-76
2023/01/16 06:34:56;;;;;;;0.45;0.30;;;2.90;99.90;;;;;;5014560;28;20069;-75
2023/01/16 06:37:23;;;;;;;0.20;0.20;;;2.90;99.90;;;;;;5014495;28;20152;-77
2023/01/16 06:39:50;;;;;;;0.43;0.43;;;2.90;99.90;;;;;;5011221;28;20493;-77
2023/01/16 06:42:17;;;;;;;0.57;0.50;;;2.90;99.90;;;;;;5012197;28;20049;-75
2023/01/16 06:44:45;;;;;;;1.13;0.70;;;3.00;99.90;;;;;;5006873;28;20544;-76
2023/01/16 06:47:12;;;;;;;0.60;0.60;;;2.90;99.90;;;;;;5010864;28;20046;-76
2023/01/16 06:49:39;;;;;;;0.50;0.50;;;2.90;99.90;;;;;;5011148;28;20434;-75
2023/01/16 06:52:06;;;;;;;0.65;0.40;;;3.00;99.90;;;;;;5015692;28;20263;-76
2023/01/16 06:54:33;;;;;;;0.38;0.38;;;3.00;99.90;;;;;;4995860;28;20582;-76
2023/01/16 06:57:01;;;;;;;0.77;0.40;;;3.00;99.90;;;;;;5011422;28;20053;-76
2023/01/16 06:59:28;;;;;;;0.68;0.40;;;3.00;99.90;;;;;;4976798;28;20087;-76
2023/01/16 07:01:55;;;;;;;0.60;0.50;;;3.00;99.90;;;;;;5010151;28;20057;-75
2023/01/16 07:04:23;;;;;;;0.95;0.40;;;3.10;99.90;;;;;;5006671;28;20046;-76
2023/01/16 07:06:50;;;;;;;0.50;0.50;;;3.10;99.90;;;;;;5010212;28;20192;-75
2023/01/16 07:09:17;;;;;;;0.43;0.43;;;3.20;99.90;;;;;;5010200;28;20121;-75
2023/01/16 07:11:44;;;;;;;0.50;0.50;;;3.20;99.90;;;;;;5008767;28;20184;-75
2023/01/16 07:22:37;;;;;;;2.22;0.70;;;3.50;99.90;;;;;;5021331;28;20132;-75
2023/01/16 07:25:08;;;;;;;4.15;1.42;;;3.50;99.90;;;;;;4992887;28;20440;-75
2023/01/16 07:27:35;;;;;;;0.88;0.80;;;3.50;99.90;;;;;;5005278;28;20053;-75
2023/01/16 07:30:02;;;;;;;0.80;0.60;;;3.50;99.90;;;;;;5023645;28;20326;-75
2023/01/16 07:32:29;;;;;;;2.03;1.00;;;3.60;99.90;;;;;;5019604;28;20404;-75
2023/01/16 07:34:56;;;;;;;1.52;0.57;;;3.50;99.90;;;;;;5022779;28;20041;-75
2023/01/16 07:37:22;;;;;;;1.00;0.60;;;3.50;99.90;;;;;;5020977;28;20041;-75
2023/01/16 07:39:49;;;;;;;1.42;0.60;;;3.50;99.90;;;;;;5005114;28;20075;-76
2023/01/16 07:42:16;;;;;;;2.17;0.80;;;3.60;99.90;;;;;;5005754;28;20076;-76
2023/01/16 07:44:43;;;;;;;1.50;0.50;;;3.60;99.90;;;;;;5018026;28;20144;-76
2023/01/16 07:47:12;;;;;;;0.50;0.50;;;3.60;99.90;;;;;;4989906;28;20045;-75
2023/01/16 07:49:39;;;;;;;1.95;0.65;;;3.70;99.90;;;;;;5016097;28;20107;-75
2023/01/16 07:52:06;;;;;;;2.28;0.90;;;3.70;99.90;;;;;;4988938;28;20137;-76
2023/01/16 07:54:35;;;;;;;2.25;1.20;;;3.80;99.90;;;;;;4985196;28;20053;-75
2023/01/16 07:57:02;;;;;;;2.97;1.50;;;3.80;99.90;;;;;;5009976;28;20045;-76
2023/01/16 07:59:29;;;;;;;3.60;1.70;;;3.90;99.90;;;;;;5015498;28;20060;-75
2023/01/16 08:01:55;;;;;;;3.83;2.10;;;3.80;99.90;;;;;;5004972;28;20417;-75
2023/01/16 08:04:22;;;;;;;7.05;2.05;;;3.80;99.90;;;;;;5006017;28;20403;-76
2023/01/16 08:06:49;;;;;;;10.63;2.80;;;3.90;99.90;;;;;;5004549;28;20053;-75
2023/01/16 08:09:16;;;;;;;5.82;2.60;;;3.90;99.90;;;;;;5021421;28;20045;-76
2023/01/16 08:11:46;;;;;;;3.90;2.50;;;3.90;99.90;;;;;;5012869;28;20077;-76
2023/01/16 08:14:13;;;;;;;7.68;3.03;;;3.80;99.90;;;;;;5020109;28;20084;-75
2023/01/16 08:16:40;;;;;;;4.57;2.50;;;3.90;99.90;;;;;;4987552;28;20140;-75
2023/01/16 08:19:07;;;;;;;5.25;2.58;;;3.90;99.90;;;;;;4985250;28;20108;-76
2023/01/16 08:21:33;;;;;;;9.85;2.70;;;3.90;99.90;;;;;;4985775;28;20071;-76
2023/01/16 08:24:00;;;;;;;8.93;2.40;;;3.90;99.90;;;;;;5014147;28;20161;-76
2023/01/16 08:26:27;;;;;;;7.95;2.05;;;3.90;99.90;;;;;;4988681;28;20063;-75
2023/01/16 08:28:54;;;;;;;8.23;2.95;;;4.00;99.90;;;;;;4992557;28;20104;-76
2023/01/16 08:31:20;;;;;;;7.72;2.58;;;4.00;99.90;;;;;;4987591;28;20050;-76
2023/01/16 08:33:48;;;;;;;6.32;2.25;;;4.00;99.90;;;;;;5001049;28;20136;-76
2023/01/16 08:36:20;;;;;;;9.48;3.03;;;4.10;99.90;;;;;;4987723;28;20375;-76
2023/01/16 08:38:49;;;;;;;13.52;3.53;;;4.20;99.90;;;;;;5004423;28;20057;-75
2023/01/16 08:52:30;;;;;;;3.55;1.80;;;4.10;99.90;;;;;;5004820;28;20540;-78
2023/01/16 08:54:57;;;;;;;7.80;2.50;;;4.20;99.90;;;;;;5003834;28;20061;-77
2023/01/16 08:57:25;;;;;;;7.90;2.30;;;4.20;99.90;;;;;;5021080;28;20053;-78
2023/01/16 08:59:52;;;;;;;5.32;1.95;;;4.10;99.90;;;;;;5004638;28;20444;-78
2023/01/16 09:02:19;;;;;;;5.93;2.03;;;4.20;99.90;;;;;;5005421;28;20128;-78
2023/01/16 09:04:46;;;;;;;6.88;2.78;;;4.10;99.90;;;;;;5004241;28;20576;-77
2023/01/16 09:07:16;;;;;;;9.73;2.75;;;4.10;99.90;;;;;;4985206;28;20128;-78
2023/01/16 09:09:43;;;;;;;11.25;3.50;;;4.10;99.90;;;;;;4992557;28;20152;-77
2023/01/16 09:14:56;;;;;;;6.80;2.72;;;4.10;99.90;;;;;;4995788;28;20133;-77
2023/01/16 09:17:24;;;;;;;9.95;3.55;;;4.00;99.90;;;;;;5007432;28;20061;-78
2023/01/16 09:19:51;;;;;;;11.32;4.00;;;4.10;99.90;;;;;;4996295;28;20499;-78
2023/01/16 09:22:18;;;;;;;8.02;3.95;;;4.00;99.90;;;;;;4982832;28;20045;-78
2023/01/16 09:24:48;;;;;;;10.25;3.88;;;4.10;99.90;;;;;;5004585;28;20099;-78
2023/01/16 09:27:14;;;;;;;7.88;4.05;;;4.00;99.90;;;;;;5024488;28;20052;-78
2023/01/16 09:29:41;;;;;;;7.57;4.40;;;4.00;99.90;;;;;;4991845;28;20057;-78
2023/01/16 09:32:08;;;;;;;14.30;4.97;;;4.00;99.90;;;;;;5008703;28;20081;-78
2023/01/16 09:34:36;;;;;;;7.53;3.47;;;4.00;99.90;;;;;;5004664;28;20049;-78
2023/01/16 09:37:04;;;;;;;7.70;3.28;;;4.00;99.90;;;;;;5021076;28;20050;-77
2023/01/16 09:39:31;;;;;;;9.32;4.13;;;4.00;99.90;;;;;;4991487;28;20408;-78
2023/01/16 09:45:22;;;;;;;7.93;4.40;;;4.00;99.90;;;;;;5025717;28;20095;-79
2023/01/16 09:47:52;;;;;;;9.82;4.43;;;4.10;99.90;;;;;;5008135;28;20076;-77
2023/01/16 09:50:42;;;;;;;5.72;2.80;;;4.10;99.90;;;;;;5007775;28;20104;-77
2023/01/16 09:59:02;;;;;;;7.28;2.83;;;4.00;99.90;;;;;;5022184;28;20470;-78
2023/01/16 10:01:35;;;;;;;4.72;3.17;;;4.10;99.90;;;;;;4994235;28;20335;-79
2023/01/16 10:04:20;;;;;;;6.85;3.67;;;4.10;99.90;;;;;;5020007;28;20113;-77
2023/01/16 10:06:56;;;;;;;7.32;3.17;;;4.10;99.90;;;;;;4988349;28;20064;-77
2023/01/16 10:09:47;;;;;;;6.53;3.53;;;4.20;99.90;;;;;;5020415;28;20548;-77
2023/01/16 10:12:14;;;;;;;6.47;4.00;;;4.10;99.90;;;;;;5020530;28;20097;-77
2023/01/16 10:14:56;;;;;;;5.88;4.65;;;4.10;99.90;;;;;;4988088;28;20052;-77
2023/01/16 10:17:37;;;;;;;9.38;3.90;;;4.10;99.90;;;;;;5006175;28;20381;-78
2023/01/16 10:20:29;;;;;;;7.95;3.90;;;4.20;99.90;;;;;;5005425;28;20173;-78
2023/01/16 10:23:33;;;;;;;8.95;4.00;;;4.10;99.90;;;;;;5009268;28;20084;-78
2023/01/16 10:26:07;;;;;;;;;;;4.20;99.90;;;;;;5022658;28;20088;-78
2023/01/16 10:28:52;;;;;;;5.60;3.42;;;4.30;99.90;;;;;;5020126;28;20321;-78
2023/01/16 10:31:58;;;;;;;9.07;4.75;;;4.30;99.90;;;;;;4987680;28;20046;-78
2023/01/16 10:34:56;;;;;;;7.63;3.47;;;4.40;99.90;;;;;;4943533;28;20153;-77
2023/01/16 10:37:23;;;;;;;4.88;3.40;;;4.50;99.90;;;;;;5013568;28;20140;-78
2023/01/16 10:39:50;;;;;;;9.38;3.95;;;4.50;99.90;;;;;;5004523;28;20091;-78
2023/01/16 10:50:57;;;;;;;8.88;4.10;;;4.40;99.90;;;;;;5010080;28;20049;-78
2023/01/16 10:53:24;;;;;;;4.45;3.28;;;4.40;99.90;;;;;;5006065;28;20097;-78
2023/01/16 10:55:52;;;;;;;8.05;3.95;;;4.50;99.90;;;;;;5006921;28;20072;-77
2023/01/16 10:58:34;;;;;;;6.45;4.25;;;4.50;99.90;;;;;;4990698;28;20075;-77
2023/01/16 11:01:02;;;;;;;7.13;4.15;;;4.50;99.90;;;;;;5007895;28;20497;-77
2023/01/16 11:03:34;;;;;;;5.82;3.92;;;4.50;99.90;;;;;;5022814;28;20473;-78
2023/01/16 11:06:21;;;;;;;7.18;4.18;;;4.50;99.90;;;;;;4990419;28;20175;-78
2023/01/16 11:08:49;;;;;;;9.77;4.60;;;4.60;99.90;;;;;;5006382;28;20061;-77
2023/01/16 11:20:28;;;;;;;5.88;3.80;;;4.50;99.90;;;;;;5008783;28;20050;-77
2023/01/16 11:22:59;;;;;;;7.95;3.95;;;4.60;99.90;;;;;;5006272;28;20096;-78
2023/01/16 11:25:27;;;;;;;6.25;4.68;;;4.60;99.90;;;;;;4987837;28;20061;-77
2023/01/16 11:27:55;;;;;;;6.22;4.70;;;4.60;99.90;;;;;;5003127;28;20515;-78
2023/01/16 11:30:28;;;;;;;7.13;5.53;;;4.60;99.90;;;;;;5006632;28;20170;-77
2023/01/16 11:32:55;;;;;;;5.88;4.93;;;4.60;99.90;;;;;;5022369;28;20400;-77
2023/01/16 11:35:25;;;;;;;5.68;4.72;;;4.70;99.90;;;;;;4989388;28;20045;-78
2023/01/16 11:37:52;;;;;;;9.02;5.45;;;4.70;99.90;;;;;;5006138;28;20049;-77
2023/01/16 11:40:22;;;;;;;6.88;4.90;;;4.70;99.90;;;;;;5022239;28;20235;-78
2023/01/16 11:46:03;;;;;;;7.55;5.70;;;4.80;99.90;;;;;;4975473;28;20052;-77
2023/01/16 11:48:36;;;;;;;11.15;7.22;;;4.80;99.90;;;;;;4993711;28;20492;-77
2023/01/16 11:51:04;;;;;;;8.85;5.60;;;4.80;99.90;;;;;;4990016;28;20653;-77
2023/01/16 11:53:32;;;;;;;7.13;4.80;;;4.80;99.90;;;;;;5005530;28;20396;-77
2023/01/16 11:56:24;;;;;;;10.45;5.30;;;4.80;99.90;;;;;;4990129;28;20144;-77
2023/01/16 11:59:14;;;;;;;8.40;5.43;;;4.90;99.90;;;;;;5005616;28;20049;-77
2023/01/16 12:02:20;;;;;;;9.05;6.40;;;5.00;99.90;;;;;;5023344;28;20057;-77
2023/01/16 12:08:22;;;;;;;8.80;5.10;;;5.00;99.90;;;;;;5023172;28;20104;-77
2023/01/16 12:11:08;;;;;;;7.75;5.20;;;5.00;99.90;;;;;;5006650;28;20111;-77
2023/01/16 12:17:24;;;;;;;7.82;5.43;;;5.00;99.90;;;;;;5021681;28;20045;-77
2023/01/16 12:20:05;;;;;;;7.60;4.93;;;5.10;99.90;;;;;;5004859;28;20054;-77
2023/01/16 12:22:51;;;;;;;8.88;5.00;;;5.10;99.90;;;;;;5005148;28;20068;-78
2023/01/16 12:25:56;;;;;;;6.72;5.30;;;5.00;99.90;;;;;;5018645;28;20056;-77
2023/01/16 12:28:38;;;;;;;7.57;4.53;;;5.00;99.90;;;;;;5020133;28;20096;-77
2023/01/16 12:31:38;;;;;;;11.50;6.78;;;5.00;99.90;;;;;;4990330;28;20081;-78
2023/01/16 12:34:24;;;;;;;8.07;5.28;;;5.10;99.90;;;;;;5000895;28;20424;-77
2023/01/16 12:37:00;;;;;;;7.05;5.35;;;5.10;99.90;;;;;;5021988;28;20051;-78
2023/01/16 12:39:53;;;;;;;6.68;4.45;;;5.20;99.90;;;;;;5022006;28;20045;-78
2023/01/16 12:46:01;;;;;;;5.18;4.47;;;5.40;99.90;;;;;;5017758;28;20046;-78
2023/01/16 12:48:58;;;;;;;6.53;4.53;;;5.40;99.90;;;;;;5021146;28;20102;-78
2023/01/16 12:51:31;;;;;;;7.20;4.68;;;5.40;99.90;;;;;;5010486;28;20056;-78
2023/01/16 12:54:25;;;;;;;9.05;5.30;;;5.50;99.90;;;;;;5022595;28;20058;-78
2023/01/16 12:57:14;;;;;;;6.47;4.43;;;5.50;99.90;;;;;;5020879;28;20103;-78
2023/01/16 12:59:56;;;;;;;6.22;4.93;;;5.60;99.90;;;;;;5024454;28;20228;-78
2023/01/16 13:02:36;;;;;;;6.65;4.30;;;5.70;99.90;;;;;;5011412;28;20057;-78
2023/01/16 13:05:12;;;;;;;8.02;4.82;;;5.80;99.90;;;;;;5009324;28;20353;-78
2023/01/16 13:08:05;;;;;;;8.40;4.55;;;5.80;99.90;;;;;;4993742;28;20334;-78
2023/01/16 13:13:26;;;;;;;6.07;3.92;;;5.90;99.90;;;;;;5011590;28;20132;-78
2023/01/16 13:16:13;;;;;;;4.70;3.33;;;5.90;99.90;;;;;;5009746;28;20077;-78
2023/01/16 13:18:45;;;;;;;4.80;3.47;;;6.00;99.90;;;;;;5008261;28;20061;-78
2023/01/16 13:21:30;;;;;;;3.83;2.95;;;5.90;99.90;;;;;;5025066;28;20077;-78
2023/01/16 13:24:12;;;;;;;6.13;3.33;;;5.90;99.90;;;;;;4990436;28;20052;-78
2023/01/16 13:26:39;;;;;;;6.90;4.18;;;5.90;99.90;;;;;;5003034;28;20089;-74
2023/01/16 13:29:28;;;;;;;4.95;2.72;;;5.80;99.90;;;;;;5004911;28;20370;-75
2023/01/16 13:32:08;;;;;;;6.30;3.15;;;5.80;99.90;;;;;;5005815;28;20049;-74
2023/01/16 13:34:50;;;;;;;6.03;2.65;;;5.80;99.90;;;;;;5008041;28;20053;-75
2023/01/16 13:37:21;;;;;;;5.45;2.38;;;5.90;99.90;;;;;;5008308;28;20430;-75
2023/01/16 13:40:22;;;;;;;2.95;2.25;;;5.90;99.90;;;;;;5004346;28;20057;-74
2023/01/16 13:45:47;;;;;;;3.22;2.47;;;5.90;99.90;;;;;;5008063;28;20041;-75
2023/01/16 13:45:49;;;;;;;4.80;2.60;;;5.90;99.90;;;;;;5000127;28;20357;-75
2023/01/16 13:48:21;;;;;;;4.18;2.88;;;5.90;99.90;;;;;;5013510;28;20465;-74
2023/01/16 13:50:58;;;;;;;5.95;2.90;;;5.90;99.90;;;;;;5026975;28;20041;-75
2023/01/16 13:53:26;;;;;;;4.35;2.75;;;5.90;99.90;;;;;;5029086;28;20080;-74
2023/01/16 13:56:06;;;;;;;4.95;3.13;;;5.80;99.90;;;;;;5003681;28;20057;-75
2023/01/16 13:58:36;;;;;;;6.45;2.97;;;5.70;99.90;;;;;;5009963;28;20124;-75
2023/01/16 14:01:04;;;;;;;7.00;3.10;;;5.50;99.90;;;;;;4984776;28;20085;-75
2023/01/16 14:03:34;;;;;;;4.30;3.10;;;5.50;99.90;;;;;;5004994;28;20076;-75
2023/01/16 14:06:10;;;;;;;9.27;3.38;;;5.40;99.90;;;;;;5004012;28;20496;-75
2023/01/16 14:09:06;;;;;;;4.38;2.30;;;5.40;99.90;;;;;;5020642;28;20561;-75
2023/01/16 14:11:40;;;;;;;4.28;2.45;;;5.40;99.90;;;;;;5019503;28;20053;-75
2023/01/16 14:17:49;;;;;;;5.35;3.10;;;5.80;99.90;;;;;;4980967;28;20247;-75
2023/01/16 14:20:44;;;;;;;4.32;3.30;;;6.30;99.90;;;;;;5022006;28;20049;-76
2023/01/16 14:26:34;;;;;;;5.65;3.55;;;6.70;99.90;;;;;;5021484;28;20137;-75
2023/01/16 14:29:02;;;;;;;7.53;3.67;;;6.60;99.90;;;;;;5022184;28;20552;-76
2023/01/16 14:31:44;;;;;;;4.47;3.47;;;6.30;99.90;;;;;;5021895;28;20132;-75
2023/01/16 14:34:16;;;;;;;4.65;3.58;;;6.30;99.90;;;;;;5019450;28;20049;-75
2023/01/16 14:36:44;;;;;;;6.68;4.70;;;6.20;99.90;;;;;;5005043;28;20151;-76
2023/01/16 14:39:31;;;;;;;5.78;3.85;;;6.00;99.90;;;;;;5005990;28;20045;-79
2023/01/16 14:56:36;;;;;;;5.68;3.83;;;5.80;99.90;;;;;;4980054;28;20049;-78